Weather at Aires de Doñana

Public forecast

Using degrees Celsius for public forecast. Weather courtesy of forecast.io.

Closest aviation weather report (METAR) to Aires de Doñana

Closest report is Base Aérea de El Copero, 27.1 nm (50.3 km) E.

2024/07/25 06:00 (retrieved 36 minutes ago)

LEEC 250600Z 16001KT CAVOK 20/15 Q1011

Closest aviation forecast (TAF) to Aires de Doñana

Closest forecast is Faro Airport, 68.7 nm (127.3 km) WSW.

2024/07/25 06:18 (retrieved 18 minutes ago)

TAF LPFR 250500Z 2506/2606 29005KT CAVOK BECMG 2509/2511 26015KT BECMG 2518/2520 30012KT